createdAt,value
2023-09-25T00:01:57.335Z,12.45
2023-09-25T00:04:26.650Z,12.56
2023-09-25T00:06:54.965Z,12.46
2023-09-25T00:09:22.778Z,12.15
2023-09-25T00:11:50.434Z,12.20
2023-09-25T00:14:17.995Z,12.31
2023-09-25T00:16:45.603Z,12.29
2023-09-25T00:19:13.270Z,12.34
2023-09-25T00:21:41.888Z,12.27
2023-09-25T00:24:09.755Z,12.34
2023-09-25T00:26:37.593Z,12.20
2023-09-25T00:29:05.460Z,12.23
2023-09-25T00:31:33.137Z,12.15
2023-09-25T00:34:00.721Z,12.24
2023-09-25T00:36:28.695Z,12.28
2023-09-25T00:38:56.455Z,12.22
2023-09-25T00:41:24.383Z,12.10
2023-09-25T00:43:52.220Z,12.11
2023-09-25T00:46:19.831Z,12.13
2023-09-25T00:48:47.763Z,12.13
2023-09-25T00:51:15.519Z,12.15
2023-09-25T00:53:46.094Z,12.11
2023-09-25T00:56:13.639Z,12.04
2023-09-25T00:58:41.609Z,12.08
2023-09-25T01:01:09.716Z,12.07
2023-09-25T01:03:37.539Z,12.09
2023-09-25T01:06:06.475Z,12.01
2023-09-25T01:08:34.178Z,11.99
2023-09-25T01:11:01.786Z,11.95
2023-09-25T01:13:29.804Z,11.92
2023-09-25T01:15:57.367Z,11.92
2023-09-25T01:18:25.292Z,11.97
2023-09-25T01:20:52.913Z,11.96
2023-09-25T01:23:20.873Z,11.89
2023-09-25T01:25:48.683Z,11.89
2023-09-25T01:28:16.532Z,11.92
2023-09-25T01:30:44.273Z,11.90
2023-09-25T01:33:14.323Z,11.98
2023-09-25T01:35:42.792Z,11.92
2023-09-25T01:38:10.540Z,11.91
2023-09-25T01:40:38.370Z,11.86
2023-09-25T01:43:06.103Z,11.83
2023-09-25T01:45:34.841Z,11.71
2023-09-25T01:48:02.717Z,11.74
2023-09-25T01:50:30.620Z,11.78
2023-09-25T01:53:00.056Z,11.78
2023-09-25T01:55:29.360Z,11.69
2023-09-25T01:57:57.209Z,11.69
2023-09-25T02:00:25.407Z,11.65
2023-09-25T02:02:53.024Z,11.69
2023-09-25T02:05:20.981Z,11.70
2023-09-25T02:07:49.771Z,11.64
2023-09-25T02:10:17.352Z,11.76
2023-09-25T02:12:45.107Z,11.72
2023-09-25T02:15:12.765Z,11.65
2023-09-25T02:17:40.620Z,11.68
2023-09-25T02:20:21.425Z,11.64
2023-09-25T02:22:50.541Z,11.60
2023-09-25T02:25:18.491Z,11.59
2023-09-25T02:27:47.127Z,11.62
2023-09-25T02:30:15.527Z,11.59
2023-09-25T02:32:44.887Z,11.52
2023-09-25T02:35:13.332Z,11.51
2023-09-25T02:37:42.783Z,11.52
2023-09-25T02:40:15.087Z,11.54
2023-09-25T02:42:43.738Z,11.47
2023-09-25T02:45:12.272Z,11.43
2023-09-25T02:47:40.231Z,11.52
2023-09-25T02:50:09.827Z,11.40
2023-09-25T02:52:38.028Z,11.54
2023-09-25T02:55:06.133Z,11.37
2023-09-25T02:57:33.779Z,11.36
2023-09-25T03:00:01.352Z,11.42
2023-09-25T03:02:28.881Z,11.36
2023-09-25T03:04:56.423Z,11.45
2023-09-25T03:07:23.882Z,11.52
2023-09-25T03:09:51.917Z,11.43
2023-09-25T03:12:20.262Z,11.42
2023-09-25T03:14:47.959Z,11.39
2023-09-25T03:17:15.890Z,11.42
2023-09-25T03:19:43.386Z,11.41
2023-09-25T03:22:10.918Z,11.43
2023-09-25T03:24:38.471Z,11.45
2023-09-25T03:27:06.041Z,11.40
2023-09-25T03:29:33.851Z,11.42
2023-09-25T03:32:01.592Z,11.40
2023-09-25T03:34:29.083Z,11.35
2023-09-25T03:36:56.892Z,11.28
2023-09-25T03:39:24.638Z,11.21
2023-09-25T03:41:52.132Z,11.25
2023-09-25T03:44:19.909Z,11.31
2023-09-25T03:46:47.692Z,11.37
2023-09-25T03:49:15.255Z,11.39
2023-09-25T03:51:43.072Z,11.41
2023-09-25T03:54:12.021Z,11.32
2023-09-25T03:56:39.577Z,11.34
2023-09-25T03:59:07.314Z,11.28
2023-09-25T04:01:34.824Z,11.27
2023-09-25T04:04:02.866Z,11.24
2023-09-25T04:06:30.444Z,11.26
2023-09-25T04:08:57.959Z,11.21
2023-09-25T04:11:25.847Z,11.27
2023-09-25T04:13:54.300Z,11.33
2023-09-25T04:16:23.712Z,11.27
2023-09-25T04:18:51.828Z,11.33
2023-09-25T04:21:19.677Z,11.36
2023-09-25T04:23:47.275Z,11.41
2023-09-25T04:26:15.201Z,11.41
2023-09-25T04:28:42.987Z,11.37
2023-09-25T04:31:13.890Z,11.27
2023-09-25T04:33:41.749Z,11.27
2023-09-25T04:36:11.678Z,11.27
2023-09-25T04:38:40.221Z,11.37
2023-09-25T04:41:07.831Z,11.36
2023-09-25T04:43:35.371Z,11.41
2023-09-25T04:46:03.060Z,11.52
2023-09-25T04:48:31.161Z,11.49
2023-09-25T04:50:59.352Z,11.47
2023-09-25T04:53:27.174Z,11.43
2023-09-25T04:55:54.765Z,11.52
2023-09-25T04:58:22.284Z,11.62
2023-09-25T05:00:49.959Z,11.62
2023-09-25T05:03:17.685Z,11.67
2023-09-25T05:05:46.180Z,11.64
2023-09-25T05:08:13.795Z,11.74
2023-09-25T05:10:42.259Z,11.71
2023-09-25T05:13:10.324Z,11.76
2023-09-25T05:15:38.152Z,11.79
2023-09-25T05:18:06.186Z,11.80
2023-09-25T05:20:33.793Z,11.79
2023-09-25T05:23:01.580Z,11.83
2023-09-25T05:25:29.584Z,11.93
2023-09-25T05:27:59.450Z,12.03
2023-09-25T05:30:27.263Z,11.97
2023-09-25T05:32:54.880Z,12.10
2023-09-25T05:35:22.685Z,12.03
2023-09-25T05:37:50.984Z,12.11
2023-09-25T05:40:19.790Z,12.19
2023-09-25T05:42:48.892Z,12.25
2023-09-25T05:45:19.137Z,12.24
2023-09-25T05:47:46.835Z,12.27
2023-09-25T05:50:15.296Z,12.40
2023-09-25T05:52:43.264Z,12.40
2023-09-25T05:55:14.040Z,12.42
2023-09-25T05:57:43.047Z,12.33
2023-09-25T06:00:14.382Z,12.38
2023-09-25T06:02:43.679Z,12.33
2023-09-25T06:05:15.360Z,12.40
2023-09-25T06:07:43.684Z,12.46
2023-09-25T06:10:12.844Z,12.46
2023-09-25T06:12:41.126Z,12.50
2023-09-25T06:15:12.883Z,12.50
2023-09-25T06:17:42.234Z,12.69
2023-09-25T06:20:17.563Z,12.73
2023-09-25T06:22:46.093Z,12.84
2023-09-25T06:25:18.965Z,12.95
2023-09-25T06:27:48.072Z,13.03
2023-09-25T06:30:17.608Z,13.21
2023-09-25T06:32:45.457Z,13.25
2023-09-25T06:35:14.052Z,13.23
2023-09-25T06:37:42.092Z,13.29
2023-09-25T06:40:17.223Z,13.38
2023-09-25T06:42:45.141Z,13.40
2023-09-25T06:45:12.713Z,13.47
2023-09-25T06:47:40.347Z,13.59
2023-09-25T06:50:07.992Z,13.56
2023-09-25T06:52:37.535Z,13.54
2023-09-25T06:55:05.661Z,13.57
2023-09-25T06:57:33.229Z,13.56
2023-09-25T07:00:01.752Z,13.58
2023-09-25T07:02:29.328Z,13.57
2023-09-25T07:04:59.618Z,13.61
2023-09-25T07:07:27.445Z,13.74
2023-09-25T07:09:55.386Z,13.85
2023-09-25T07:12:24.433Z,13.89
2023-09-25T07:14:57.915Z,14.00
2023-09-25T07:17:26.120Z,14.07
2023-09-25T07:19:54.542Z,14.20
2023-09-25T07:22:23.782Z,14.38
2023-09-25T07:24:52.113Z,14.46
2023-09-25T07:27:20.008Z,14.55
2023-09-25T07:29:49.141Z,14.56
2023-09-25T07:32:17.114Z,14.68
2023-09-25T07:34:46.327Z,14.80
2023-09-25T07:37:14.240Z,14.82
2023-09-25T07:39:42.321Z,14.89
2023-09-25T07:42:10.906Z,15.00
2023-09-25T07:44:39.277Z,15.02
2023-09-25T07:47:08.421Z,15.06
2023-09-25T07:49:42.023Z,15.13
2023-09-25T07:52:17.119Z,15.26
2023-09-25T07:54:52.534Z,15.32
2023-09-25T07:57:22.170Z,15.37
2023-09-25T07:59:50.072Z,15.37
2023-09-25T08:02:22.060Z,15.42
2023-09-25T08:04:50.799Z,15.46
2023-09-25T08:07:20.281Z,15.50
2023-09-25T08:09:48.440Z,15.48
2023-09-25T08:12:16.367Z,15.51
2023-09-25T08:14:44.133Z,15.49
2023-09-25T08:17:12.147Z,15.47
2023-09-25T08:19:39.563Z,15.43
2023-09-25T08:22:08.311Z,15.45
2023-09-25T08:24:35.818Z,15.49
2023-09-25T08:27:05.930Z,15.45
2023-09-25T08:29:33.794Z,15.41
2023-09-25T08:32:02.223Z,15.41
2023-09-25T08:34:30.234Z,15.37
2023-09-25T08:36:57.996Z,15.39
2023-09-25T08:39:25.593Z,15.35
2023-09-25T08:41:53.143Z,15.33
2023-09-25T08:44:21.598Z,15.35
2023-09-25T08:46:49.841Z,15.30
2023-09-25T08:49:17.790Z,15.29
2023-09-25T08:51:45.871Z,15.27
2023-09-25T08:54:14.109Z,15.23
2023-09-25T08:56:42.756Z,15.24
2023-09-25T08:59:12.498Z,15.29
2023-09-25T09:01:40.249Z,15.43
2023-09-25T09:04:10.806Z,15.35
2023-09-25T09:06:39.162Z,15.32
2023-09-25T09:09:09.217Z,15.26
2023-09-25T09:11:39.519Z,15.36
2023-09-25T09:14:07.929Z,15.34
2023-09-25T09:16:35.474Z,15.29
2023-09-25T09:19:10.169Z,15.39
2023-09-25T09:21:38.189Z,15.40
2023-09-25T09:24:09.364Z,15.43
2023-09-25T09:26:41.954Z,15.46
2023-09-25T09:29:14.335Z,15.54
2023-09-25T09:31:42.845Z,15.56
2023-09-25T09:34:10.430Z,15.61
2023-09-25T09:36:38.587Z,15.55
2023-09-25T09:39:12.028Z,15.62
2023-09-25T09:41:42.469Z,15.61
2023-09-25T09:44:10.398Z,15.58
2023-09-25T09:46:40.345Z,15.67
2023-09-25T09:49:09.628Z,15.72
2023-09-25T09:51:37.568Z,15.92
2023-09-25T09:54:07.004Z,16.04
2023-09-25T09:56:37.033Z,16.09
2023-09-25T09:59:05.044Z,16.10
2023-09-25T10:01:36.672Z,15.93
2023-09-25T10:04:06.827Z,15.84
2023-09-25T10:06:45.333Z,15.87
2023-09-25T10:09:13.019Z,15.86
2023-09-25T10:11:43.648Z,15.82
2023-09-25T10:14:11.463Z,15.80
2023-09-25T10:17:03.546Z,15.69
2023-09-25T10:19:37.722Z,15.66
2023-09-25T10:22:17.691Z,15.61
2023-09-25T10:24:48.027Z,15.67
2023-09-25T10:27:17.675Z,15.75
2023-09-25T10:30:04.077Z,15.86
2023-09-25T10:32:33.002Z,16.02
2023-09-25T10:35:38.194Z,16.07
2023-09-25T10:38:31.689Z,16.07
2023-09-25T10:41:06.291Z,16.05
2023-09-25T10:43:35.781Z,16.04
2023-09-25T10:46:04.828Z,15.91
2023-09-25T10:48:33.906Z,15.88
2023-09-25T10:51:01.615Z,15.87
2023-09-25T10:53:29.536Z,15.89
2023-09-25T10:55:57.623Z,15.92
2023-09-25T10:58:25.590Z,16.01
2023-09-25T11:00:53.758Z,16.08
2023-09-25T11:03:21.874Z,16.11
2023-09-25T11:05:50.340Z,16.12
2023-09-25T11:08:19.615Z,16.15
2023-09-25T11:10:48.848Z,16.14
2023-09-25T11:13:16.294Z,16.12
2023-09-25T11:15:45.480Z,16.11
2023-09-25T11:18:13.481Z,16.11
2023-09-25T11:20:42.541Z,16.13
2023-09-25T11:23:20.921Z,16.10
2023-09-25T11:25:51.859Z,16.12
2023-09-25T11:28:21.918Z,16.14
2023-09-25T11:30:50.882Z,16.15
2023-09-25T11:33:21.699Z,16.14
2023-09-25T11:35:53.815Z,16.13
2023-09-25T11:38:25.157Z,16.11
2023-09-25T11:40:54.152Z,16.08
2023-09-25T11:43:25.978Z,16.02
2023-09-25T11:45:54.412Z,16.02
2023-09-25T11:48:23.698Z,15.95
2023-09-25T11:50:51.956Z,15.93
2023-09-25T11:53:19.824Z,15.95
2023-09-25T11:55:50.412Z,15.93
2023-09-25T11:58:19.291Z,15.96
2023-09-25T12:00:47.385Z,16.00
2023-09-25T12:03:15.332Z,16.03
2023-09-25T12:05:43.251Z,16.08
2023-09-25T12:08:13.708Z,16.19
2023-09-25T12:10:41.340Z,16.26
2023-09-25T12:13:10.667Z,16.27
2023-09-25T12:15:39.018Z,16.26
2023-09-25T12:18:08.195Z,16.21
2023-09-25T12:20:43.143Z,16.21
2023-09-25T12:23:11.817Z,16.26
2023-09-25T12:25:39.655Z,16.27
2023-09-25T12:28:08.132Z,16.34
2023-09-25T12:30:36.638Z,16.39
2023-09-25T12:33:05.309Z,16.43
2023-09-25T12:35:33.132Z,16.47
2023-09-25T12:38:00.812Z,16.56
2023-09-25T12:40:31.287Z,16.54
2023-09-25T12:42:59.198Z,16.44
2023-09-25T12:45:26.960Z,16.35
2023-09-25T12:47:54.765Z,16.34
2023-09-25T12:50:22.768Z,16.30
2023-09-25T12:52:50.442Z,16.28
2023-09-25T12:55:17.986Z,16.21
2023-09-25T12:57:45.627Z,16.20
2023-09-25T13:00:13.701Z,16.15
2023-09-25T13:02:41.231Z,16.19
2023-09-25T13:05:09.724Z,16.27
2023-09-25T13:07:37.761Z,16.31
2023-09-25T13:10:06.835Z,16.26
2023-09-25T13:12:34.669Z,16.27
2023-09-25T13:15:04.699Z,16.32
2023-09-25T13:17:32.656Z,16.40
2023-09-25T13:20:08.473Z,16.42
2023-09-25T13:22:37.961Z,16.38
2023-09-25T13:25:06.766Z,16.39
2023-09-25T13:27:34.870Z,16.41
2023-09-25T13:30:02.825Z,16.48
2023-09-25T13:32:30.457Z,16.50
2023-09-25T13:34:58.049Z,16.43
2023-09-25T13:37:25.556Z,16.42
2023-09-25T13:39:54.332Z,16.37
2023-09-25T13:42:21.831Z,16.31
2023-09-25T13:44:49.309Z,16.28
2023-09-25T13:47:16.772Z,16.34
2023-09-25T13:49:45.405Z,16.37
2023-09-25T13:52:14.030Z,16.38
2023-09-25T13:54:41.856Z,16.37
2023-09-25T13:57:11.784Z,16.37
2023-09-25T13:59:41.444Z,16.39
2023-09-25T14:02:09.214Z,16.40
2023-09-25T14:04:36.953Z,16.42
2023-09-25T14:07:04.558Z,16.44
2023-09-25T14:09:32.136Z,16.44
2023-09-25T14:11:59.708Z,16.41
2023-09-25T14:14:41.528Z,16.40
2023-09-25T14:17:09.655Z,16.41
2023-09-25T14:19:37.135Z,16.42
2023-09-25T14:22:05.889Z,16.42
2023-09-25T14:24:33.772Z,16.41
2023-09-25T14:27:02.946Z,16.42
2023-09-25T14:29:32.465Z,16.40
2023-09-25T14:32:00.084Z,16.38
2023-09-25T14:34:27.793Z,16.36
2023-09-25T14:36:55.291Z,16.30
2023-09-25T14:39:29.894Z,16.27
2023-09-25T14:41:58.039Z,16.26
2023-09-25T14:44:26.886Z,16.24
2023-09-25T14:46:55.123Z,16.22
2023-09-25T14:49:23.238Z,16.22
2023-09-25T14:51:54.362Z,16.24
2023-09-25T14:54:22.321Z,16.23
2023-09-25T14:56:50.105Z,16.21
2023-09-25T14:59:18.606Z,16.14
2023-09-25T15:01:49.482Z,16.10
2023-09-25T15:04:20.358Z,16.06
2023-09-25T15:06:48.217Z,16.08
2023-09-25T15:09:16.600Z,16.05
2023-09-25T15:11:44.245Z,15.98
2023-09-25T15:14:14.134Z,15.97
2023-09-25T15:16:41.961Z,15.95
2023-09-25T15:19:09.939Z,15.97
2023-09-25T15:21:37.936Z,15.99
2023-09-25T15:24:05.738Z,15.94
2023-09-25T15:26:33.791Z,15.87
2023-09-25T15:29:01.669Z,15.88
2023-09-25T15:31:29.504Z,15.85
2023-09-25T15:33:57.798Z,15.81
2023-09-25T15:36:25.657Z,15.83
2023-09-25T15:38:53.307Z,15.79
2023-09-25T15:41:21.096Z,15.82
2023-09-25T15:43:48.964Z,15.78
2023-09-25T15:46:17.141Z,15.78
2023-09-25T15:48:44.921Z,15.78
2023-09-25T15:51:13.000Z,15.70
2023-09-25T15:53:40.566Z,15.68
2023-09-25T15:56:08.267Z,15.62
2023-09-25T15:58:35.794Z,15.66
2023-09-25T16:01:03.635Z,15.64
2023-09-25T16:03:31.516Z,15.54
2023-09-25T16:05:59.294Z,15.55
2023-09-25T16:08:26.833Z,15.54
2023-09-25T16:10:54.697Z,15.53
2023-09-25T16:13:22.446Z,15.54
2023-09-25T16:15:50.334Z,15.58
2023-09-25T16:18:18.266Z,15.58
2023-09-25T16:20:45.941Z,15.52
2023-09-25T16:23:13.539Z,15.47
2023-09-25T16:25:41.344Z,15.49
2023-09-25T16:28:09.117Z,15.44
2023-09-25T16:30:38.386Z,15.43
2023-09-25T16:33:08.943Z,15.29
2023-09-25T16:35:36.666Z,15.36
2023-09-25T16:38:04.618Z,15.30
2023-09-25T16:40:32.211Z,15.35
2023-09-25T16:42:59.768Z,15.38
2023-09-25T16:45:27.829Z,15.37
2023-09-25T16:47:55.596Z,15.38
2023-09-25T16:50:25.838Z,15.39
2023-09-25T16:52:53.307Z,15.24
2023-09-25T16:55:20.850Z,15.26
2023-09-25T16:57:48.519Z,15.17
2023-09-25T17:00:17.011Z,15.13
2023-09-25T17:02:45.220Z,15.21
2023-09-25T17:05:13.003Z,15.21
2023-09-25T17:07:41.369Z,15.24
2023-09-25T17:10:09.355Z,15.24
2023-09-25T17:12:36.940Z,15.18
2023-09-25T17:15:05.033Z,15.08
2023-09-25T17:17:32.680Z,15.06
2023-09-25T17:20:00.422Z,15.01
2023-09-25T17:22:28.042Z,15.07
2023-09-25T17:24:57.081Z,15.08
2023-09-25T17:27:24.904Z,15.04
2023-09-25T17:29:54.259Z,14.97
2023-09-25T17:32:22.020Z,14.99
2023-09-25T17:34:49.928Z,14.93
2023-09-25T17:37:17.509Z,14.90
2023-09-25T17:39:45.030Z,14.93
2023-09-25T17:42:12.594Z,14.87
2023-09-25T17:44:40.118Z,14.85
2023-09-25T17:47:09.072Z,14.88
2023-09-25T17:49:36.811Z,14.92
2023-09-25T17:52:17.880Z,14.90
2023-09-25T17:54:51.650Z,14.79
2023-09-25T17:57:20.132Z,14.80
2023-09-25T17:59:48.026Z,14.80
2023-09-25T18:02:16.065Z,14.71
2023-09-25T18:04:44.867Z,14.74
2023-09-25T18:07:12.416Z,14.60
2023-09-25T18:09:40.144Z,14.56
2023-09-25T18:12:07.831Z,14.43
2023-09-25T18:14:36.843Z,14.52
2023-09-25T18:17:04.863Z,14.50
2023-09-25T18:19:32.519Z,14.47
2023-09-25T18:22:00.412Z,14.58
2023-09-25T18:24:29.857Z,14.53
2023-09-25T18:26:57.907Z,14.62
2023-09-25T18:29:25.667Z,14.55
2023-09-25T18:31:53.516Z,14.56
2023-09-25T18:34:22.422Z,14.44
2023-09-25T18:36:50.305Z,14.53
2023-09-25T18:39:21.266Z,14.57
2023-09-25T18:41:49.381Z,14.49
2023-09-25T18:44:22.182Z,14.52
2023-09-25T18:46:53.022Z,14.55
2023-09-25T18:49:21.082Z,14.48
2023-09-25T18:51:48.963Z,14.45
2023-09-25T18:54:16.961Z,14.37
2023-09-25T18:56:44.678Z,14.36
2023-09-25T18:59:12.225Z,14.50
2023-09-25T19:01:40.331Z,14.44
2023-09-25T19:04:08.327Z,14.24
2023-09-25T19:06:35.905Z,14.31
2023-09-25T19:09:06.769Z,14.28
2023-09-25T19:11:34.707Z,14.10
2023-09-25T19:14:02.417Z,14.13
2023-09-25T19:16:30.099Z,14.19
2023-09-25T19:19:00.045Z,14.31
2023-09-25T19:21:28.982Z,14.27
2023-09-25T19:23:59.021Z,14.24
2023-09-25T19:26:27.418Z,14.23
2023-09-25T19:28:56.561Z,14.21
2023-09-25T19:31:39.333Z,14.22
2023-09-25T19:34:11.035Z,14.34
2023-09-25T19:36:42.162Z,14.36
2023-09-25T19:39:09.975Z,14.28
2023-09-25T19:41:37.723Z,14.33
2023-09-25T19:44:06.788Z,14.38
2023-09-25T19:46:36.103Z,14.42
2023-09-25T19:49:07.240Z,14.40
2023-09-25T19:51:36.544Z,14.37
2023-09-25T19:54:05.229Z,14.33
2023-09-25T19:56:32.970Z,14.39
2023-09-25T19:59:00.700Z,14.22
2023-09-25T20:01:29.036Z,14.20
2023-09-25T20:03:56.859Z,14.14
2023-09-25T20:06:25.024Z,14.23
2023-09-25T20:08:52.791Z,14.16
2023-09-25T20:11:20.336Z,14.22
2023-09-25T20:13:48.381Z,14.28
2023-09-25T20:16:16.298Z,14.20
2023-09-25T20:18:43.922Z,14.30
2023-09-25T20:21:12.912Z,14.32
2023-09-25T20:23:40.456Z,14.10
2023-09-25T20:26:09.647Z,14.22
2023-09-25T20:28:38.562Z,14.34
2023-09-25T20:31:07.092Z,14.26
2023-09-25T20:33:34.773Z,14.29
2023-09-25T20:36:04.858Z,14.22
2023-09-25T20:38:33.360Z,14.25
2023-09-25T20:41:01.963Z,14.23
2023-09-25T20:43:29.578Z,14.32
2023-09-25T20:45:57.183Z,14.34
2023-09-25T20:48:24.789Z,14.16
2023-09-25T20:50:52.522Z,14.22
2023-09-25T20:53:20.582Z,14.29
2023-09-25T20:55:48.799Z,14.28
2023-09-25T20:58:16.702Z,14.23
2023-09-25T21:00:44.532Z,14.22
2023-09-25T21:03:12.368Z,14.31
2023-09-25T21:05:39.974Z,14.24
2023-09-25T21:08:07.567Z,14.18
2023-09-25T21:10:35.074Z,14.20
2023-09-25T21:13:04.586Z,14.21
2023-09-25T21:15:33.306Z,14.05
2023-09-25T21:18:01.962Z,14.19
2023-09-25T21:20:29.782Z,14.28
2023-09-25T21:22:57.341Z,14.38
2023-09-25T21:25:24.901Z,14.34
2023-09-25T21:27:54.209Z,14.29
2023-09-25T21:30:21.847Z,14.21
2023-09-25T21:32:49.674Z,14.09
2023-09-25T21:35:17.244Z,14.21
2023-09-25T21:37:44.826Z,14.15
2023-09-25T21:40:12.761Z,14.20
2023-09-25T21:42:40.503Z,14.29
2023-09-25T21:45:08.620Z,14.22
2023-09-25T21:47:37.802Z,14.26
2023-09-25T21:50:06.122Z,14.31
2023-09-25T21:52:33.771Z,14.22
2023-09-25T21:55:03.604Z,14.17
2023-09-25T21:57:33.000Z,14.13
2023-09-25T22:00:00.458Z,14.28
2023-09-25T22:02:27.985Z,14.27
2023-09-25T22:04:55.528Z,14.32
2023-09-25T22:07:23.176Z,14.25
2023-09-25T22:09:50.797Z,14.26
2023-09-25T22:12:18.355Z,14.24
2023-09-25T22:14:45.851Z,14.37
2023-09-25T22:17:13.404Z,14.44
2023-09-25T22:19:41.205Z,14.30
2023-09-25T22:22:09.063Z,14.25
2023-09-25T22:24:36.822Z,14.30
2023-09-25T22:27:04.350Z,14.31
2023-09-25T22:29:31.934Z,14.30
2023-09-25T22:32:01.478Z,14.19
2023-09-25T22:34:29.300Z,14.21
2023-09-25T22:36:57.169Z,14.22
2023-09-25T22:39:25.993Z,14.21
2023-09-25T22:41:53.514Z,14.24
2023-09-25T22:44:22.321Z,14.28
2023-09-25T22:46:49.884Z,14.19
2023-09-25T22:49:17.683Z,14.25
2023-09-25T22:51:45.348Z,14.25
2023-09-25T22:54:12.879Z,14.27
2023-09-25T22:56:40.591Z,14.28
2023-09-25T22:59:08.034Z,14.23
2023-09-25T23:01:35.902Z,14.26
2023-09-25T23:04:04.682Z,14.28
2023-09-25T23:06:32.500Z,14.28
2023-09-25T23:08:59.989Z,14.29
2023-09-25T23:11:27.684Z,14.28
2023-09-25T23:13:56.166Z,14.27
2023-09-25T23:16:23.724Z,14.24
2023-09-25T23:18:51.880Z,14.21
2023-09-25T23:21:19.560Z,14.14
2023-09-25T23:23:47.310Z,14.15
2023-09-25T23:26:14.815Z,14.14
2023-09-25T23:28:42.276Z,14.09
2023-09-25T23:31:10.823Z,14.23
2023-09-25T23:33:38.598Z,14.26
2023-09-25T23:36:06.694Z,14.15
2023-09-25T23:38:34.227Z,14.12
2023-09-25T23:41:01.788Z,14.12
2023-09-25T23:43:29.284Z,14.14
2023-09-25T23:45:57.209Z,14.10
2023-09-25T23:48:24.906Z,14.10
2023-09-25T23:50:54.116Z,14.09
2023-09-25T23:53:21.614Z,14.12
2023-09-25T23:55:49.100Z,14.10
2023-09-25T23:58:16.702Z,14.15
